Time;durP1;ratioP1;P1;durP2;ratioP2;P2;SDS_P1;SDS_P2;PMS_P1;PMS_P2;Temp;Humidity;BMP_temperature;BMP_pressure;BME280_temperature;BME280_humidity;BME280_pressure;Samples;Min_cycle;Max_cycle;Signal;HPM_P1;HPM_P2
2023/10/17 00:01:21;;;;;;;4.95;1.35;;;5.20;1.00;;;;;;4991203;28;20406;-64
2023/10/17 00:03:47;;;;;;;5.50;1.52;;;5.10;1.00;;;;;;4991270;28;20768;-64
2023/10/17 00:06:17;;;;;;;5.43;0.85;;;5.10;1.00;;;;;;4989527;28;20411;-64
2023/10/17 00:08:44;;;;;;;5.70;1.00;;;5.00;47.00;;;;;;4990431;28;20394;-64
2023/10/17 00:11:15;;;;;;;7.00;2.20;;;4.90;99.90;;;;;;4991516;28;20418;-64
2023/10/17 00:13:45;;;;;;;5.00;1.63;;;4.80;99.90;;;;;;4991650;28;20829;-64
2023/10/17 00:16:17;;;;;;;4.80;1.00;;;4.80;99.90;;;;;;4990705;28;20805;-64
2023/10/17 00:18:43;;;;;;;6.70;1.30;;;4.80;99.90;;;;;;4991558;28;20418;-64
2023/10/17 00:21:16;;;;;;;6.60;1.97;;;4.70;99.90;;;;;;4990129;28;20398;-64
2023/10/17 00:23:42;;;;;;;6.53;1.75;;;4.70;99.90;;;;;;4990701;28;20415;-64
2023/10/17 00:26:12;;;;;;;5.80;1.00;;;4.60;99.90;;;;;;4991313;28;20538;-64
2023/10/17 00:28:38;;;;;;;4.70;1.25;;;4.60;99.90;;;;;;4991125;28;20405;-65
2023/10/17 00:31:04;;;;;;;6.10;1.70;;;4.60;99.90;;;;;;4991207;28;20800;-65
2023/10/17 00:33:32;;;;;;;5.40;1.60;;;4.50;99.90;;;;;;4989127;28;20906;-65
2023/10/17 00:35:59;;;;;;;6.68;2.22;;;4.40;99.90;;;;;;4972930;28;20795;-64
2023/10/17 00:38:29;;;;;;;5.22;1.70;;;4.40;99.90;;;;;;4990078;28;20426;-65
2023/10/17 00:40:56;;;;;;;7.80;1.65;;;4.40;99.90;;;;;;4991136;28;20399;-65
2023/10/17 00:43:28;;;;;;;6.13;1.52;;;4.50;99.90;;;;;;4990547;28;20736;-65
2023/10/17 00:45:53;;;;;;;7.60;2.03;;;4.50;99.90;;;;;;4990704;28;20446;-65
2023/10/17 00:48:23;;;;;;;5.80;1.37;;;4.50;99.90;;;;;;4990264;28;20418;-64
2023/10/17 00:51:01;;;;;;;5.80;1.65;;;4.50;99.90;;;;;;4990339;28;20387;-64
2023/10/17 00:53:27;;;;;;;6.13;1.03;;;4.50;99.90;;;;;;4990649;28;20417;-64
2023/10/17 00:55:55;;;;;;;5.10;1.57;;;4.40;99.90;;;;;;4990872;28;20410;-64
2023/10/17 00:58:24;;;;;;;5.88;1.48;;;4.50;99.90;;;;;;4990569;28;20832;-63
2023/10/17 01:00:58;;;;;;;5.35;1.63;;;4.40;99.90;;;;;;4990393;28;20414;-64
2023/10/17 01:03:25;;;;;;;4.93;1.27;;;4.30;99.90;;;;;;4990138;28;20410;-64
2023/10/17 01:05:57;;;;;;;6.30;2.10;;;4.20;99.90;;;;;;4990624;28;20403;-64
2023/10/17 01:08:36;;;;;;;5.68;1.38;;;4.20;99.90;;;;;;4990232;28;20486;-63
2023/10/17 01:11:08;;;;;;;6.38;1.90;;;4.20;99.90;;;;;;4990976;28;20414;-64
2023/10/17 01:13:37;;;;;;;4.80;1.10;;;4.20;99.90;;;;;;4989079;28;20433;-64
2023/10/17 01:16:07;;;;;;;4.47;1.00;;;4.10;99.90;;;;;;4980921;28;20413;-63
2023/10/17 01:18:34;;;;;;;7.28;1.48;;;4.00;1.00;;;;;;4989648;28;20433;-64
2023/10/17 01:21:00;;;;;;;5.43;1.40;;;4.00;1.00;;;;;;4987252;28;20393;-64
2023/10/17 01:23:27;;;;;;;5.03;1.10;;;4.10;1.00;;;;;;4975717;28;20398;-64
2023/10/17 01:25:53;;;;;;;4.90;1.25;;;4.20;1.00;;;;;;4990021;28;20398;-64
2023/10/17 01:28:19;;;;;;;5.70;1.30;;;4.30;1.00;;;;;;4974142;28;20394;-64
2023/10/17 01:30:45;;;;;;;7.82;1.27;;;4.40;99.90;;;;;;4990330;28;20394;-65
2023/10/17 01:33:12;;;;;;;6.80;1.60;;;4.50;99.90;;;;;;4989564;28;20399;-65
2023/10/17 01:35:40;;;;;;;6.90;2.30;;;4.50;99.90;;;;;;4989596;28;20406;-65
2023/10/17 01:38:08;;;;;;;6.38;1.20;;;4.50;99.90;;;;;;4989693;28;20901;-65
2023/10/17 01:40:33;;;;;;;4.40;1.10;;;4.50;99.90;;;;;;4989961;28;20486;-63
2023/10/17 01:42:59;;;;;;;5.00;1.80;;;4.50;99.90;;;;;;4989910;28;20955;-64
2023/10/17 01:45:26;;;;;;;4.70;1.10;;;4.60;99.90;;;;;;4989738;28;20760;-64
2023/10/17 01:47:53;;;;;;;4.63;1.13;;;4.60;99.90;;;;;;4989504;28;20429;-63
2023/10/17 01:50:25;;;;;;;4.80;1.02;;;4.50;99.90;;;;;;4989542;28;20402;-64
2023/10/17 01:52:54;;;;;;;5.17;1.40;;;4.50;99.90;;;;;;4989634;28;20452;-64
2023/10/17 01:55:25;;;;;;;5.57;1.83;;;4.40;99.90;;;;;;4989348;28;20402;-64
2023/10/17 01:57:54;;;;;;;4.85;1.20;;;4.30;99.90;;;;;;4989320;28;20441;-64
2023/10/17 02:00:38;;;;;;;5.60;1.60;;;4.20;99.90;;;;;;4989513;28;20445;-64
2023/10/17 02:03:05;;;;;;;5.57;1.55;;;4.20;99.90;;;;;;4988336;28;20907;-64
2023/10/17 02:05:32;;;;;;;5.22;1.40;;;4.10;99.90;;;;;;4990153;28;20437;-64
2023/10/17 02:07:58;;;;;;;4.78;0.88;;;3.90;99.90;;;;;;4989209;28;20497;-65
2023/10/17 02:10:25;;;;;;;5.40;0.90;;;3.80;99.90;;;;;;4989614;28;20442;-64
2023/10/17 02:12:52;;;;;;;5.45;1.55;;;3.80;1.00;;;;;;4988337;28;20809;-64
2023/10/17 02:15:23;;;;;;;4.97;1.00;;;3.80;99.90;;;;;;4978669;28;20401;-64
2023/10/17 02:17:51;;;;;;;4.80;1.40;;;3.80;99.90;;;;;;4987851;28;20446;-64
2023/10/17 02:22:57;;;;;;;5.95;1.30;;;3.70;99.90;;;;;;4989286;28;20394;-64
2023/10/17 02:25:36;;;;;;;5.80;1.70;;;3.70;1.00;;;;;;4987567;28;20493;-65
2023/10/17 02:28:02;;;;;;;5.07;1.48;;;3.90;1.00;;;;;;4989799;28;20896;-65
2023/10/17 02:30:28;;;;;;;5.85;1.50;;;3.90;1.00;;;;;;4989245;28;20482;-64
2023/10/17 02:32:53;;;;;;;8.75;1.60;;;4.10;1.00;;;;;;4988473;28;20835;-64
2023/10/17 02:35:28;;;;;;;5.00;1.00;;;4.10;99.90;;;;;;4988682;28;20971;-64
2023/10/17 02:37:56;;;;;;;6.00;1.40;;;4.10;99.90;;;;;;4988828;28;20448;-64
2023/10/17 02:40:23;;;;;;;4.20;0.95;;;4.00;99.90;;;;;;4984584;28;20459;-65
2023/10/17 02:42:49;;;;;;;6.80;2.07;;;4.00;99.90;;;;;;4989229;28;20414;-62
2023/10/17 02:45:24;;;;;;;5.30;1.35;;;3.90;99.90;;;;;;4992070;28;20409;-64
2023/10/17 02:47:55;;;;;;;6.45;1.30;;;3.80;1.00;;;;;;4992571;28;20436;-64
2023/10/17 02:52:55;;;;;;;5.20;1.40;;;3.80;1.00;;;;;;4994637;28;20505;-64
2023/10/17 02:55:24;;;;;;;6.22;0.80;;;3.90;1.00;;;;;;4997493;28;20838;-64
2023/10/17 02:57:53;;;;;;;5.25;1.50;;;3.90;1.00;;;;;;4999065;28;20422;-64
2023/10/17 03:00:21;;;;;;;5.00;1.50;;;4.00;1.00;;;;;;4999494;28;20386;-65
2023/10/17 03:02:52;;;;;;;4.80;1.30;;;4.00;1.00;;;;;;4998127;28;20541;-64
2023/10/17 03:05:19;;;;;;;5.13;1.33;;;4.00;1.00;;;;;;4992169;28;20413;-64
2023/10/17 03:07:49;;;;;;;5.00;1.40;;;4.00;1.00;;;;;;4991606;28;20413;-64
2023/10/17 03:13:05;;;;;;;6.10;1.50;;;4.20;1.00;;;;;;4990535;28;20425;-65
2023/10/17 03:15:30;;;;;;;5.10;1.30;;;4.40;99.90;;;;;;4990924;28;20402;-65
2023/10/17 03:18:00;;;;;;;5.90;1.53;;;4.50;99.90;;;;;;4991831;28;20426;-64
2023/10/17 03:20:36;;;;;;;5.07;1.53;;;4.60;99.90;;;;;;4992055;28;20398;-64
2023/10/17 03:23:03;;;;;;;7.10;1.70;;;4.60;99.90;;;;;;4988795;28;20402;-65
2023/10/17 03:25:36;;;;;;;4.80;1.40;;;4.60;99.90;;;;;;4988901;28;20475;-65
2023/10/17 03:28:04;;;;;;;5.15;1.25;;;4.50;99.90;;;;;;4984588;28;20399;-65
2023/10/17 03:30:30;;;;;;;4.50;1.10;;;4.50;99.90;;;;;;4990789;28;20819;-65
2023/10/17 03:35:25;;;;;;;5.20;1.40;;;4.50;99.90;;;;;;4991799;28;20545;-63
2023/10/17 03:37:51;;;;;;;4.70;1.30;;;4.50;99.90;;;;;;4989824;28;20411;-64
2023/10/17 03:40:19;;;;;;;4.70;1.20;;;4.40;99.90;;;;;;4991605;28;20420;-64
2023/10/17 03:42:55;;;;;;;4.60;1.40;;;4.40;99.90;;;;;;4991122;28;20505;-64
2023/10/17 03:45:27;;;;;;;5.88;1.17;;;4.50;99.90;;;;;;4989374;28;20485;-64
2023/10/17 03:47:53;;;;;;;6.05;1.60;;;4.50;99.90;;;;;;4990185;28;20927;-64
2023/10/17 03:53:14;;;;;;;4.35;0.73;;;4.60;99.90;;;;;;4991871;28;20402;-64
2023/10/17 03:55:42;;;;;;;6.43;1.40;;;4.60;99.90;;;;;;4990684;28;20410;-64
2023/10/17 04:00:54;;;;;;;4.82;1.20;;;4.70;99.90;;;;;;4991621;28;20406;-64
2023/10/17 04:03:27;;;;;;;5.40;0.93;;;4.60;99.90;;;;;;4990060;28;20913;-64
2023/10/17 04:06:02;;;;;;;4.50;1.00;;;4.60;99.90;;;;;;4988954;28;20418;-63
2023/10/17 04:11:17;;;;;;;5.03;0.80;;;4.50;99.90;;;;;;4991474;28;20456;-64
2023/10/17 04:13:50;;;;;;;5.60;1.70;;;4.60;99.90;;;;;;4988983;28;20430;-63
2023/10/17 04:16:31;;;;;;;5.32;1.00;;;4.60;99.90;;;;;;4989622;28;20419;-63
2023/10/17 04:19:00;;;;;;;7.28;1.48;;;4.60;99.90;;;;;;4991629;28;20454;-63
2023/10/17 04:21:35;;;;;;;5.55;0.93;;;4.70;99.90;;;;;;4991203;28;20402;-64
2023/10/17 04:24:05;;;;;;;5.20;0.80;;;4.60;99.90;;;;;;4988101;28;20487;-64
2023/10/17 04:26:34;;;;;;;6.00;1.47;;;4.60;99.90;;;;;;4991380;28;20409;-68
2023/10/17 04:29:10;;;;;;;5.18;0.95;;;4.60;99.90;;;;;;4992375;28;20386;-67
2023/10/17 04:31:36;;;;;;;4.60;1.08;;;4.70;99.90;;;;;;4991655;28;20717;-66
2023/10/17 04:34:14;;;;;;;5.13;1.30;;;4.70;99.90;;;;;;4987428;28;20438;-67
2023/10/17 04:36:40;;;;;;;5.95;1.00;;;4.70;99.90;;;;;;4988892;28;20407;-67
2023/10/17 04:39:11;;;;;;;5.90;2.20;;;4.60;99.90;;;;;;4989363;28;20573;-67
2023/10/17 04:42:04;;;;;;;4.90;1.00;;;4.50;99.90;;;;;;4990872;28;20414;-67
2023/10/17 04:44:33;;;;;;;6.00;1.20;;;4.50;99.90;;;;;;4983197;28;20417;-67
2023/10/17 04:49:30;;;;;;;4.30;1.00;;;4.50;99.90;;;;;;4989398;28;20417;-67
2023/10/17 04:52:08;;;;;;;4.28;0.73;;;4.70;99.90;;;;;;4986574;28;20414;-68
2023/10/17 04:57:16;;;;;;;4.82;1.10;;;4.80;99.90;;;;;;4989566;28;20772;-66
2023/10/17 06:18:49;;;;;;;5.70;1.50;;;5.70;1.00;;;;;;4971282;28;20478;-67
2023/10/17 06:21:19;;;;;;;6.72;2.03;;;5.70;1.00;;;;;;4971721;28;20785;-71
2023/10/17 06:26:58;;;;;;;6.15;1.67;;;5.80;1.00;;;;;;4987106;28;20929;-72
2023/10/17 06:34:33;;;;;;;10.57;2.55;;;5.80;99.90;;;;;;4990500;28;20430;-72
2023/10/17 06:37:00;;;;;;;8.40;1.75;;;5.90;99.90;;;;;;4986744;28;20410;-71
2023/10/17 06:39:36;;;;;;;9.48;1.60;;;6.10;99.90;;;;;;4989320;28;20426;-72
2023/10/17 06:42:14;;;;;;;8.60;2.00;;;6.20;1.00;;;;;;4990826;28;20430;-72
2023/10/17 06:47:31;;;;;;;4.80;1.40;;;6.30;99.90;;;;;;4973522;28;20411;-72
2023/10/17 06:52:54;;;;;;;12.50;2.22;;;6.30;1.00;;;;;;4979437;28;20438;-72
2023/10/17 06:55:38;;;;;;;6.60;1.60;;;6.40;99.90;;;;;;4987176;28;20461;-72
2023/10/17 06:58:09;;;;;;;10.13;1.75;;;6.60;99.90;;;;;;4977643;28;20516;-73
2023/10/17 07:00:43;;;;;;;4.80;1.40;;;6.70;99.90;;;;;;4983906;28;20453;-67
2023/10/17 07:03:13;;;;;;;4.90;1.30;;;6.80;99.90;;;;;;4975490;28;20396;-67
2023/10/17 07:05:38;;;;;;;6.00;1.85;;;6.90;99.90;;;;;;4987762;28;20418;-67
2023/10/17 07:08:13;;;;;;;5.77;1.97;;;6.90;1.00;;;;;;4986886;28;20407;-67
2023/10/17 07:10:39;;;;;;;5.95;1.65;;;6.80;99.90;;;;;;4987181;28;20822;-67
2023/10/17 07:13:41;;;;;;;6.17;1.47;;;6.90;1.00;;;;;;4982453;28;20426;-66
2023/10/17 07:16:14;;;;;;;5.35;1.85;;;6.80;99.90;;;;;;4977447;28;20427;-67
2023/10/17 07:18:51;;;;;;;5.40;1.27;;;6.80;1.00;;;;;;4976674;28;20428;-67
2023/10/17 07:21:22;;;;;;;5.40;1.45;;;6.90;1.00;;;;;;4983969;28;20510;-67
2023/10/17 07:23:48;;;;;;;4.43;0.93;;;6.90;91.70;;;;;;4988508;28;20406;-67
2023/10/17 07:26:17;;;;;;;6.18;2.40;;;7.10;1.00;;;;;;4990988;28;20425;-66
2023/10/17 07:28:49;;;;;;;5.65;1.55;;;7.10;1.00;;;;;;4990077;28;20413;-67
2023/10/17 07:31:16;;;;;;;7.70;2.70;;;7.30;99.90;;;;;;4990916;28;20757;-67
2023/10/17 07:33:43;;;;;;;5.63;1.55;;;7.50;99.90;;;;;;4984986;28;20478;-66
2023/10/17 07:36:18;;;;;;;7.75;2.08;;;7.70;99.90;;;;;;4990850;28;20910;-67
2023/10/17 07:38:44;;;;;;;7.70;1.70;;;7.90;1.00;;;;;;4991924;28;20426;-66
2023/10/17 07:41:13;;;;;;;7.68;2.42;;;8.20;1.00;;;;;;4987891;28;20418;-67
2023/10/17 07:43:44;;;;;;;5.70;2.00;;;8.50;99.90;;;;;;4998900;28;20495;-67
2023/10/17 07:46:15;;;;;;;7.75;2.72;;;8.80;1.00;;;;;;4995149;28;20414;-66
2023/10/17 07:48:46;;;;;;;7.55;2.35;;;8.90;99.90;;;;;;4992631;28;20406;-67
2023/10/17 07:51:14;;;;;;;6.78;2.38;;;9.00;99.90;;;;;;4991418;28;20784;-66
2023/10/17 07:53:45;;;;;;;13.40;1.80;;;8.90;99.90;;;;;;4991936;28;20466;-66
2023/10/17 07:56:26;;;;;;;5.40;1.90;;;8.90;99.90;;;;;;4994003;28;20410;-67
2023/10/17 07:59:08;;;;;;;8.87;2.70;;;9.30;99.90;;;;;;4993842;28;20438;-67
2023/10/17 08:01:45;;;;;;;8.45;2.40;;;9.60;56.50;;;;;;4992905;28;20446;-67
2023/10/17 08:04:26;;;;;;;6.20;2.20;;;9.80;1.00;;;;;;4987871;28;20406;-67
2023/10/17 08:06:53;;;;;;;5.85;1.95;;;10.00;1.00;;;;;;4991156;28;20425;-66
2023/10/17 08:11:51;;;;;;;7.03;2.70;;;10.00;1.00;;;;;;4998770;28;20437;-72
2023/10/17 08:14:18;;;;;;;6.03;2.42;;;10.20;1.00;;;;;;4994950;28;20461;-71
2023/10/17 08:16:45;;;;;;;6.80;2.60;;;10.30;1.00;;;;;;4985380;28;20851;-71
2023/10/17 08:19:21;;;;;;;7.05;2.03;;;10.50;1.00;;;;;;4989668;28;20426;-72
2023/10/17 08:22:09;;;;;;;9.20;3.28;;;10.80;1.00;;;;;;4997231;28;20406;-71
2023/10/17 08:24:40;;;;;;;8.40;2.42;;;10.80;1.00;;;;;;4996872;28;20429;-71
2023/10/17 08:27:13;;;;;;;12.00;2.50;;;10.70;1.00;;;;;;4991621;28;20486;-72
2023/10/17 08:29:42;;;;;;;7.50;2.35;;;10.50;1.00;;;;;;4993917;28;20813;-72
2023/10/17 08:34:55;;;;;;;36.00;4.93;;;10.50;1.00;;;;;;4992173;28;20414;-72
2023/10/17 08:37:39;;;;;;;9.30;3.30;;;10.80;1.00;;;;;;4997966;28;20416;-73
2023/10/17 08:40:29;;;;;;;7.25;2.60;;;11.20;1.00;;;;;;4998277;28;20422;-73
2023/10/17 08:42:52;;;;;;;9.40;3.50;;;11.40;1.00;;;;;;4993084;28;20418;-73
2023/10/17 08:45:19;;;;;;;6.38;2.70;;;11.30;1.00;;;;;;4998714;28;20497;-73
2023/10/17 08:47:46;;;;;;;7.88;2.97;;;11.40;1.00;;;;;;4984777;28;20420;-73
2023/10/17 08:50:15;;;;;;;9.00;3.38;;;11.60;1.00;;;;;;4994593;28;20454;-73
2023/10/17 08:52:46;;;;;;;8.80;2.70;;;11.70;1.00;;;;;;4998733;28;20476;-73
2023/10/17 08:55:15;;;;;;;9.75;2.88;;;11.80;1.00;;;;;;5005789;28;20410;-73
2023/10/17 08:57:41;;;;;;;9.80;3.08;;;12.00;1.00;;;;;;4979757;28;20738;-73
2023/10/17 09:02:35;;;;;;;11.70;2.53;;;11.80;99.90;;;;;;4999381;28;20475;-73
2023/10/17 09:05:25;;;;;;;7.60;2.10;;;11.20;1.00;;;;;;4990263;28;20545;-73
2023/10/17 09:07:55;;;;;;;8.35;2.72;;;11.20;1.00;;;;;;4990546;28;20430;-73
2023/10/17 09:10:28;;;;;;;11.27;2.78;;;11.00;1.00;;;;;;4998267;28;20497;-73
2023/10/17 09:13:52;;;;;;;7.13;2.30;;;10.80;1.00;;;;;;4993605;28;20434;-73
2023/10/17 09:15:55;;;;;;;8.23;3.03;;;10.80;1.00;;;;;;4992342;28;20504;-73
2023/10/17 09:18:27;;;;;;;7.32;2.70;;;11.20;1.00;;;;;;4995820;28;20438;-74
2023/10/17 09:20:56;;;;;;;10.00;2.83;;;11.50;1.00;;;;;;4987269;28;20414;-73
2023/10/17 09:23:28;;;;;;;7.70;2.25;;;11.90;1.00;;;;;;4989956;28;20477;-73
2023/10/17 09:26:07;;;;;;;6.55;2.45;;;12.30;1.00;;;;;;4987816;28;20426;-72
2023/10/17 09:28:33;;;;;;;8.37;3.07;;;12.30;99.90;;;;;;4996478;28;20436;-72
2023/10/17 09:31:06;;;;;;;9.80;3.72;;;11.90;1.00;;;;;;4993675;28;20423;-67
2023/10/17 09:33:33;;;;;;;10.80;3.30;;;11.60;1.00;;;;;;4985597;28;22334;-67
2023/10/17 09:36:05;;;;;;;9.40;3.40;;;11.70;1.00;;;;;;4986770;28;20425;-68
2023/10/17 09:38:34;;;;;;;8.13;3.08;;;11.70;1.00;;;;;;4994714;28;20434;-67
2023/10/17 09:41:03;;;;;;;7.60;2.88;;;11.90;1.00;;;;;;4993134;28;20398;-67
2023/10/17 09:43:32;;;;;;;8.13;3.03;;;12.10;1.00;;;;;;4989848;28;20406;-68
2023/10/17 09:46:09;;;;;;;9.73;3.23;;;12.20;1.00;;;;;;4991211;28;20467;-68
2023/10/17 09:48:37;;;;;;;11.85;3.70;;;12.20;1.00;;;;;;4991442;28;20983;-67
2023/10/17 09:51:03;;;;;;;8.88;3.05;;;12.20;1.00;;;;;;4991402;28;20414;-67
2023/10/17 09:53:34;;;;;;;10.07;2.80;;;12.40;1.00;;;;;;4990584;28;20763;-68
2023/10/17 09:56:16;;;;;;;8.80;3.70;;;12.60;1.00;;;;;;4990099;28;20424;-68
2023/10/17 09:58:48;;;;;;;9.02;2.90;;;12.80;99.90;;;;;;4989503;28;20430;-68
2023/10/17 10:01:26;;;;;;;10.52;3.20;;;12.90;99.90;;;;;;4988521;28;20874;-68
2023/10/17 10:03:53;;;;;;;12.07;3.67;;;13.00;99.90;;;;;;4986171;28;21040;-68
2023/10/17 10:06:32;;;;;;;8.77;2.95;;;13.20;99.90;;;;;;4988480;28;20406;-68
2023/10/17 10:09:01;;;;;;;10.00;3.80;;;13.10;99.90;;;;;;4987633;28;20406;-69
2023/10/17 10:11:48;;;;;;;8.70;4.10;;;12.90;99.90;;;;;;4985733;28;21964;-69
2023/10/17 10:14:15;;;;;;;8.57;3.50;;;12.90;99.90;;;;;;4972590;28;20857;-69
2023/10/17 10:16:53;;;;;;;10.48;3.63;;;12.90;99.90;;;;;;4989560;28;20408;-69
2023/10/17 10:19:22;;;;;;;9.05;3.55;;;12.90;99.90;;;;;;4989678;28;20534;-69
2023/10/17 10:21:53;;;;;;;7.88;3.75;;;12.70;99.90;;;;;;4988595;28;20762;-69
2023/10/17 10:24:28;;;;;;;8.40;2.83;;;12.60;99.90;;;;;;4989192;28;20904;-68
2023/10/17 10:27:24;;;;;;;8.27;3.10;;;12.60;99.90;;;;;;4989710;28;20416;-69
2023/10/17 10:30:17;;;;;;;10.02;4.28;;;12.70;99.90;;;;;;4985891;28;20403;-68
2023/10/17 10:32:44;;;;;;;9.10;2.70;;;12.90;99.90;;;;;;4980092;28;20754;-68
2023/10/17 10:35:11;;;;;;;9.15;3.13;;;13.00;99.90;;;;;;4989389;28;20485;-68
2023/10/17 10:37:53;;;;;;;9.27;3.70;;;13.10;99.90;;;;;;4987169;28;20485;-68
2023/10/17 10:40:25;;;;;;;10.93;4.13;;;13.10;99.90;;;;;;4982772;28;20406;-68
2023/10/17 10:42:53;;;;;;;9.88;3.65;;;13.20;99.90;;;;;;4987892;28;20396;-69
2023/10/17 10:45:50;;;;;;;9.07;3.67;;;13.40;99.90;;;;;;4970779;28;20412;-69
2023/10/17 10:48:17;;;;;;;9.02;3.97;;;13.50;99.90;;;;;;4986055;28;20436;-68
2023/10/17 10:50:47;;;;;;;10.35;4.40;;;13.70;99.90;;;;;;4989825;28;20386;-68
2023/10/17 10:53:36;;;;;;;12.10;4.07;;;13.70;99.90;;;;;;4989355;28;20387;-69
2023/10/17 10:56:13;;;;;;;9.90;4.70;;;13.60;99.90;;;;;;4990544;28;20398;-67
2023/10/17 10:58:47;;;;;;;12.90;5.15;;;13.80;99.90;;;;;;4986855;28;20437;-68
2023/10/17 11:01:14;;;;;;;11.02;4.30;;;13.70;99.90;;;;;;4993077;28;20448;-68
2023/10/17 11:03:44;;;;;;;8.68;3.95;;;13.70;99.90;;;;;;4992995;28;20769;-69
2023/10/17 11:06:10;;;;;;;11.82;4.40;;;13.70;99.90;;;;;;4993673;28;20394;-69
2023/10/17 11:08:43;;;;;;;11.95;4.35;;;13.50;99.90;;;;;;4994318;28;20405;-69
2023/10/17 11:11:14;;;;;;;13.15;5.00;;;13.30;99.90;;;;;;4994024;28;20406;-68
2023/10/17 11:13:44;;;;;;;9.67;5.00;;;13.50;99.90;;;;;;4993163;28;20422;-68
2023/10/17 11:16:10;;;;;;;11.70;4.78;;;13.80;99.90;;;;;;4990111;28;20515;-68
2023/10/17 11:18:43;;;;;;;12.00;4.10;;;13.90;99.90;;;;;;4991265;28;20434;-68
2023/10/17 11:21:10;;;;;;;12.20;4.60;;;13.80;99.90;;;;;;4994510;28;20405;-69
2023/10/17 11:23:40;;;;;;;12.68;4.57;;;13.90;99.90;;;;;;4987244;28;20415;-69
2023/10/17 11:26:12;;;;;;;11.35;4.28;;;13.90;99.90;;;;;;4992992;28;20382;-69
2023/10/17 11:28:42;;;;;;;11.27;4.53;;;13.80;99.90;;;;;;4993148;28;20403;-69
2023/10/17 11:31:21;;;;;;;10.75;4.20;;;13.70;99.90;;;;;;4992909;28;20396;-69
2023/10/17 11:33:56;;;;;;;10.30;4.40;;;13.60;99.90;;;;;;4993085;28;20443;-69
2023/10/17 11:36:23;;;;;;;16.30;4.10;;;13.30;99.90;;;;;;4992657;28;20452;-69
2023/10/17 11:38:56;;;;;;;10.48;4.30;;;13.30;99.90;;;;;;4992835;28;20422;-69
2023/10/17 11:41:28;;;;;;;10.35;3.78;;;13.50;99.90;;;;;;4993156;28;20478;-69
2023/10/17 11:43:54;;;;;;;10.27;3.53;;;13.50;99.90;;;;;;4988979;28;20406;-69
2023/10/17 11:46:37;;;;;;;10.43;3.70;;;13.50;99.90;;;;;;4992957;28;20379;-69
2023/10/17 11:49:28;;;;;;;12.07;4.90;;;13.70;99.90;;;;;;4992766;28;20942;-69
2023/10/17 11:52:00;;;;;;;10.60;4.10;;;13.60;99.90;;;;;;4992604;28;20633;-68
2023/10/17 11:54:29;;;;;;;9.00;3.83;;;13.40;99.90;;;;;;4992492;28;20414;-69
2023/10/17 11:56:55;;;;;;;9.55;4.00;;;13.50;99.90;;;;;;4992815;28;20448;-69
2023/10/17 11:59:21;;;;;;;8.30;3.65;;;13.70;99.90;;;;;;4989846;28;20525;-69
2023/10/17 12:01:52;;;;;;;9.35;3.88;;;13.60;99.90;;;;;;4978325;28;20440;-69
2023/10/17 12:04:18;;;;;;;9.68;3.58;;;13.40;99.90;;;;;;4975655;28;20939;-68
2023/10/17 12:06:47;;;;;;;8.30;3.45;;;13.30;99.90;;;;;;4992282;28;20429;-69
2023/10/17 12:09:46;;;;;;;9.90;4.18;;;13.60;99.90;;;;;;4987608;28;20510;-69
2023/10/17 12:12:06;;;;;;;11.50;3.38;;;13.90;99.90;;;;;;4970324;28;20461;-67
2023/10/17 12:14:34;;;;;;;11.32;3.92;;;14.20;99.90;;;;;;4973063;28;20455;-69
2023/10/17 12:17:00;;;;;;;13.82;4.85;;;14.40;99.90;;;;;;4987303;28;20480;-74
2023/10/17 12:19:27;;;;;;;17.23;4.60;;;14.50;99.90;;;;;;4992224;28;20783;-72
2023/10/17 12:22:00;;;;;;;13.93;5.47;;;14.90;99.90;;;;;;4993279;28;20421;-73
2023/10/17 12:24:34;;;;;;;10.63;4.40;;;15.00;99.90;;;;;;4990828;28;20502;-73
2023/10/17 12:27:00;;;;;;;13.35;5.43;;;15.00;99.90;;;;;;4992894;28;20408;-73
2023/10/17 12:29:26;;;;;;;7.90;3.90;;;15.10;99.90;;;;;;4993109;28;20392;-73
2023/10/17 12:31:59;;;;;;;12.90;4.03;;;15.40;99.90;;;;;;4992100;28;20406;-74
2023/10/17 12:34:27;;;;;;;11.00;4.63;;;15.40;99.90;;;;;;4993188;28;20398;-73
2023/10/17 12:36:52;;;;;;;9.30;3.55;;;15.30;99.90;;;;;;4991273;28;20406;-73
2023/10/17 12:39:18;;;;;;;11.73;4.30;;;14.90;99.90;;;;;;4990880;28;20832;-69
2023/10/17 12:41:49;;;;;;;11.60;3.58;;;14.60;99.90;;;;;;4990996;28;20405;-69
2023/10/17 12:44:20;;;;;;;11.48;3.67;;;14.50;99.90;;;;;;4991226;28;20401;-69
2023/10/17 12:46:47;;;;;;;10.38;3.63;;;14.80;99.90;;;;;;4989227;28;20592;-68
2023/10/17 12:49:12;;;;;;;11.17;4.10;;;14.90;99.90;;;;;;4991049;28;20399;-68
2023/10/17 12:51:38;;;;;;;13.45;4.47;;;15.00;99.90;;;;;;4990948;28;20417;-68
2023/10/17 12:54:06;;;;;;;8.65;3.13;;;15.20;99.90;;;;;;4991081;28;20441;-68
2023/10/17 12:56:31;;;;;;;9.63;3.75;;;15.10;99.90;;;;;;4990771;28;20406;-68
2023/10/17 12:58:58;;;;;;;14.95;4.07;;;14.80;99.90;;;;;;4989320;28;20788;-68
2023/10/17 13:01:24;;;;;;;10.82;4.10;;;14.60;99.90;;;;;;4990887;28;20398;-68
2023/10/17 13:03:53;;;;;;;10.55;3.72;;;14.70;99.90;;;;;;5006053;28;20923;-68
2023/10/17 13:06:21;;;;;;;12.07;4.00;;;14.70;99.90;;;;;;4990666;28;20749;-68
2023/10/17 13:08:47;;;;;;;12.80;4.07;;;14.60;99.90;;;;;;4990456;28;20979;-68
2023/10/17 13:11:13;;;;;;;7.30;3.10;;;14.50;99.90;;;;;;4987812;28;20493;-68
2023/10/17 13:13:39;;;;;;;14.85;5.03;;;14.40;99.90;;;;;;4989766;28;20460;-68
2023/10/17 13:16:05;;;;;;;10.17;4.10;;;14.30;99.90;;;;;;4986659;28;20765;-68
2023/10/17 13:18:35;;;;;;;8.88;3.63;;;14.20;99.90;;;;;;4991263;28;20486;-68
2023/10/17 13:21:06;;;;;;;10.23;4.15;;;14.10;99.90;;;;;;4990203;28;20402;-68
2023/10/17 13:23:32;;;;;;;9.18;4.05;;;14.10;99.90;;;;;;4986258;28;20827;-68
2023/10/17 13:25:58;;;;;;;10.30;4.50;;;14.30;99.90;;;;;;4970925;28;20396;-68
2023/10/17 13:28:24;;;;;;;9.57;3.78;;;14.30;99.90;;;;;;4971382;28;20499;-67
2023/10/17 13:30:50;;;;;;;9.38;4.30;;;14.30;99.90;;;;;;4984549;28;20758;-67
2023/10/17 13:33:21;;;;;;;9.15;3.22;;;14.20;99.90;;;;;;4990779;28;20382;-68
2023/10/17 13:35:47;;;;;;;9.82;3.97;;;14.40;99.90;;;;;;4990681;28;20888;-69
2023/10/17 13:38:13;;;;;;;9.80;4.85;;;14.60;99.90;;;;;;4989920;28;20512;-69
2023/10/17 13:40:39;;;;;;;11.70;4.25;;;14.70;99.90;;;;;;4974271;28;20895;-70
2023/10/17 13:43:04;;;;;;;11.27;4.53;;;14.70;99.90;;;;;;4985519;28;20412;-68
2023/10/17 13:45:37;;;;;;;7.90;3.10;;;14.40;99.90;;;;;;4990373;28;20424;-69
2023/10/17 13:48:02;;;;;;;8.23;3.40;;;14.40;99.90;;;;;;4990953;28;20773;-68
2023/10/17 13:50:28;;;;;;;10.40;3.17;;;14.30;99.90;;;;;;4989499;28;20417;-69
2023/10/17 13:52:54;;;;;;;8.03;3.20;;;14.50;99.90;;;;;;4988781;28;20806;-68
2023/10/17 13:55:26;;;;;;;14.50;3.92;;;14.50;99.90;;;;;;4979446;28;20492;-68
2023/10/17 13:58:01;;;;;;;9.98;4.20;;;14.70;99.90;;;;;;4980269;28;20422;-68
2023/10/17 14:00:36;;;;;;;10.43;4.47;;;14.70;99.90;;;;;;4987770;28;20384;-69
2023/10/17 14:03:05;;;;;;;9.05;3.90;;;14.60;99.90;;;;;;4982675;28;20666;-68
2023/10/17 14:05:31;;;;;;;9.10;3.78;;;14.40;99.90;;;;;;4988840;28;20404;-69
2023/10/17 14:07:56;;;;;;;10.18;4.88;;;14.40;99.90;;;;;;4988951;28;20478;-69
2023/10/17 14:10:24;;;;;;;7.60;3.40;;;14.60;99.90;;;;;;4989605;28;20493;-68
2023/10/17 14:12:51;;;;;;;11.15;4.07;;;14.50;99.90;;;;;;4989732;28;20589;-69
2023/10/17 14:15:16;;;;;;;9.35;4.03;;;14.60;99.90;;;;;;4988512;28;20379;-68
2023/10/17 14:17:45;;;;;;;10.10;4.03;;;14.60;99.90;;;;;;4988385;28;20464;-69
2023/10/17 14:20:38;;;;;;;9.68;3.90;;;14.50;99.90;;;;;;4989194;28;20378;-69
2023/10/17 14:23:16;;;;;;;7.90;2.72;;;14.30;99.90;;;;;;4988012;28;20492;-69
2023/10/17 14:26:00;;;;;;;9.57;3.75;;;14.50;99.90;;;;;;5002490;28;20771;-69
2023/10/17 14:28:26;;;;;;;11.13;4.22;;;14.80;99.90;;;;;;4988470;28;20398;-68
2023/10/17 14:30:52;;;;;;;9.80;3.47;;;14.80;99.90;;;;;;4983126;28;20468;-68
2023/10/17 14:33:18;;;;;;;8.40;3.70;;;14.70;99.90;;;;;;4988475;28;20914;-69
2023/10/17 14:35:43;;;;;;;11.93;3.90;;;14.60;99.90;;;;;;4991679;28;20516;-69
2023/10/17 14:38:13;;;;;;;9.57;3.80;;;14.60;99.90;;;;;;4991801;28;20529;-69
2023/10/17 14:40:41;;;;;;;11.10;4.18;;;14.70;99.90;;;;;;4992465;28;20854;-68
2023/10/17 14:43:09;;;;;;;14.95;5.28;;;14.60;99.90;;;;;;4992285;28;20759;-68
2023/10/17 14:45:42;;;;;;;13.60;4.70;;;14.50;99.90;;;;;;4992250;28;20473;-68
2023/10/17 14:48:11;;;;;;;11.48;3.38;;;14.50;99.90;;;;;;4991953;28;20484;-69
2023/10/17 14:50:39;;;;;;;8.52;3.00;;;14.50;99.90;;;;;;4990932;28;20789;-69
2023/10/17 14:53:05;;;;;;;9.90;3.92;;;14.70;99.90;;;;;;4991121;28;20442;-69
2023/10/17 14:55:31;;;;;;;9.93;4.80;;;14.70;99.90;;;;;;4993308;28;20504;-69
2023/10/17 14:57:56;;;;;;;9.00;3.97;;;14.70;99.90;;;;;;4992501;28;20422;-69
2023/10/17 15:00:22;;;;;;;7.73;3.33;;;14.60;99.90;;;;;;4992263;28;20401;-67
2023/10/17 15:02:49;;;;;;;9.10;4.10;;;14.40;99.90;;;;;;4989639;28;20386;-68
2023/10/17 15:05:16;;;;;;;11.32;3.53;;;14.30;99.90;;;;;;4992381;28;20475;-68
2023/10/17 15:07:42;;;;;;;9.55;3.60;;;14.30;99.90;;;;;;4992150;28;20577;-68
2023/10/17 15:10:13;;;;;;;16.23;4.38;;;14.30;99.90;;;;;;4990402;28;20406;-68
2023/10/17 15:12:45;;;;;;;11.27;3.92;;;14.20;99.90;;;;;;4988309;28;20410;-68